createdAt,value
2023-04-20T00:02:06.077Z,101434.94
2023-04-20T00:04:32.586Z,101436.78
2023-04-20T00:06:59.325Z,101442.13
2023-04-20T00:09:25.708Z,101442.13
2023-04-20T00:11:52.213Z,101431.63
2023-04-20T00:14:18.617Z,101432.88
2023-04-20T00:16:45.293Z,101434.75
2023-04-20T00:19:11.789Z,101434.94
2023-04-20T00:21:38.368Z,101433.50
2023-04-20T00:24:04.814Z,101434.09
2023-04-20T00:26:31.731Z,101436.97
2023-04-20T00:28:58.105Z,101435.31
2023-04-20T00:31:24.573Z,101429.16
2023-04-20T00:33:51.562Z,101439.66
2023-04-20T00:36:17.956Z,101431.22
2023-04-20T00:38:44.434Z,101429.16
2023-04-20T00:41:11.140Z,101429.34
2023-04-20T00:43:37.899Z,101427.28
2023-04-20T00:46:04.284Z,101430.38
2023-04-20T00:48:30.825Z,101421.91
2023-04-20T00:50:57.145Z,101427.28
2023-04-20T00:53:23.552Z,101419.66
2023-04-20T00:55:50.124Z,101425.03
2023-04-20T00:58:16.659Z,101425.63
2023-04-20T01:00:43.045Z,101424.78
2023-04-20T01:03:10.379Z,101423.34
2023-04-20T01:05:36.881Z,101421.91
2023-04-20T01:08:03.553Z,101419.66
2023-04-20T01:10:29.895Z,101418.81
2023-04-20T01:12:58.105Z,101421.50
2023-04-20T01:15:25.502Z,101422.75
2023-04-20T01:17:52.547Z,101417.97
2023-04-20T01:20:19.327Z,101422.34
2023-04-20T01:22:45.703Z,101426.41
2023-04-20T01:25:12.393Z,101415.69
2023-04-20T01:27:39.459Z,101412.00
2023-04-20T01:30:05.814Z,101421.50
2023-04-20T01:32:32.523Z,101416.69
2023-04-20T01:34:58.972Z,101418.38
2023-04-20T01:37:25.328Z,101420.66
2023-04-20T01:39:51.766Z,101421.06
2023-04-20T01:42:18.373Z,101425.16
2023-04-20T01:44:44.809Z,101419.56
2023-04-20T01:47:11.437Z,101427.63
2023-04-20T01:49:38.082Z,101426.41
2023-04-20T01:52:04.504Z,101419.38
2023-04-20T01:54:31.222Z,101425.16
2023-04-20T01:56:57.903Z,101422.47
2023-04-20T01:59:24.204Z,101427.84
2023-04-20T02:01:50.689Z,101430.09
2023-04-20T02:04:17.604Z,101426.81
2023-04-20T02:06:44.159Z,101427.19
2023-04-20T02:09:10.896Z,101425.34
2023-04-20T02:11:37.390Z,101418.34
2023-04-20T02:14:03.715Z,101413.19
2023-04-20T02:16:30.135Z,101426.41
2023-04-20T02:18:56.520Z,101426.41
2023-04-20T02:21:22.843Z,101435.06
2023-04-20T02:23:49.388Z,101424.53
2023-04-20T02:26:15.772Z,101426.41
2023-04-20T02:28:42.279Z,101432.56
2023-04-20T02:31:08.756Z,101429.28
2023-04-20T02:33:35.312Z,101427.19
2023-04-20T02:36:01.707Z,101420.81
2023-04-20T02:38:28.081Z,101423.06
2023-04-20T02:40:54.443Z,101422.03
2023-04-20T02:43:21.408Z,101423.47
2023-04-20T02:45:48.056Z,101428.44
2023-04-20T02:48:14.428Z,101425.13
2023-04-20T02:50:40.823Z,101432.34
2023-04-20T02:53:07.585Z,101442.41
2023-04-20T02:55:34.153Z,101438.53
2023-04-20T02:58:00.570Z,101434.00
2023-04-20T03:00:27.332Z,101438.72
2023-04-20T03:02:53.807Z,101436.88
2023-04-20T03:05:20.199Z,101441.84
2023-04-20T03:07:46.600Z,101442.41
2023-04-20T03:10:13.241Z,101432.53
2023-04-20T03:12:39.550Z,101432.53
2023-04-20T03:15:06.072Z,101436.88
2023-04-20T03:17:32.763Z,101426.75
2023-04-20T03:19:59.300Z,101420.97
2023-04-20T03:22:25.647Z,101427.56
2023-04-20T03:24:53.359Z,101433.75
2023-04-20T03:27:20.031Z,101433.75
2023-04-20T03:29:46.396Z,101442.84
2023-04-20T03:32:12.769Z,101433.56
2023-04-20T03:34:39.402Z,101451.69
2023-04-20T03:37:05.712Z,101455.59
2023-04-20T03:39:32.283Z,101452.53
2023-04-20T03:41:58.628Z,101452.72
2023-04-20T03:44:25.089Z,101448.59
2023-04-20T03:46:51.674Z,101450.22
2023-04-20T03:49:18.175Z,101445.72
2023-04-20T03:51:44.822Z,101441.38
2023-04-20T03:54:11.249Z,101441.38
2023-04-20T03:56:37.643Z,101439.50
2023-04-20T03:59:04.000Z,101444.88
2023-04-20T04:01:30.416Z,101441.59
2023-04-20T04:03:57.170Z,101446.28
2023-04-20T04:06:23.685Z,101455.19
2023-04-20T04:08:50.220Z,101462.19
2023-04-20T04:11:17.035Z,101465.06
2023-04-20T04:13:43.577Z,101464.66
2023-04-20T04:16:10.191Z,101461.38
2023-04-20T04:18:36.853Z,101462.19
2023-04-20T04:21:03.246Z,101459.50
2023-04-20T04:23:29.609Z,101451.47
2023-04-20T04:25:55.948Z,101458.03
2023-04-20T04:28:22.303Z,101462.38
2023-04-20T04:30:48.592Z,101468.56
2023-04-20T04:33:14.917Z,101465.28
2023-04-20T04:35:41.320Z,101464.25
2023-04-20T04:38:08.052Z,101466.94
2023-04-20T04:40:34.451Z,101474.97
2023-04-20T04:43:00.739Z,101468.75
2023-04-20T04:45:27.250Z,101479.09
2023-04-20T04:47:53.747Z,101474.78
2023-04-20T04:50:20.403Z,101467.97
2023-04-20T04:52:46.803Z,101476.81
2023-04-20T04:55:15.019Z,101477.00
2023-04-20T04:57:42.802Z,101469.81
2023-04-20T05:00:09.164Z,101470.84
2023-04-20T05:02:36.342Z,101484.22
2023-04-20T05:05:02.933Z,101475.34
2023-04-20T05:07:29.298Z,101479.88
2023-04-20T05:09:55.944Z,101488.56
2023-04-20T05:12:22.395Z,101485.03
2023-04-20T05:14:48.792Z,101479.69
2023-04-20T05:17:15.653Z,101481.34
2023-04-20T05:19:42.034Z,101472.47
2023-04-20T05:22:08.457Z,101470.00
2023-04-20T05:24:34.836Z,101470.84
2023-04-20T05:27:01.890Z,101481.56
2023-04-20T05:29:28.384Z,101478.41
2023-04-20T05:31:54.947Z,101479.06
2023-04-20T05:34:21.596Z,101474.75
2023-04-20T05:36:48.309Z,101472.47
2023-04-20T05:39:14.844Z,101474.94
2023-04-20T05:41:41.178Z,101480.47
2023-04-20T05:44:07.493Z,101485.41
2023-04-20T05:46:34.112Z,101494.69
2023-04-20T05:49:00.591Z,101491.81
2023-04-20T05:51:27.081Z,101507.28
2023-04-20T05:53:53.647Z,101507.91
2023-04-20T05:56:20.135Z,101500.50
2023-04-20T05:58:46.515Z,101510.19
2023-04-20T06:01:13.140Z,101504.63
2023-04-20T06:03:39.608Z,101496.19
2023-04-20T06:06:06.144Z,101497.81
2023-04-20T06:08:32.665Z,101503.19
2023-04-20T06:10:59.382Z,101504.22
2023-04-20T06:13:25.749Z,101506.66
2023-04-20T06:15:52.399Z,101508.16
2023-04-20T06:18:19.354Z,101516.41
2023-04-20T06:20:45.757Z,101511.66
2023-04-20T06:23:12.247Z,101512.69
2023-04-20T06:25:38.612Z,101517.44
2023-04-20T06:28:05.051Z,101517.19
2023-04-20T06:30:31.423Z,101519.91
2023-04-20T06:32:59.245Z,101518.00
2023-04-20T06:35:25.832Z,101518.63
2023-04-20T06:37:52.192Z,101527.25
2023-04-20T06:40:18.526Z,101524.09
2023-04-20T06:42:45.109Z,101523.22
2023-04-20T06:45:11.418Z,101527.63
2023-04-20T06:47:38.238Z,101527.97
2023-04-20T06:50:04.769Z,101529.34
2023-04-20T06:52:31.504Z,101524.34
2023-04-20T06:54:57.899Z,101519.31
2023-04-20T06:57:24.270Z,101515.97
2023-04-20T06:59:50.640Z,101521.09
2023-04-20T07:02:17.515Z,101522.59
2023-04-20T07:04:44.327Z,101521.97
2023-04-20T07:07:10.809Z,101523.78
2023-04-20T07:09:37.120Z,101528.50
2023-04-20T07:12:03.472Z,101519.25
2023-04-20T07:14:29.851Z,101528.75
2023-04-20T07:16:56.278Z,101531.00
2023-04-20T07:19:23.240Z,101532.03
2023-04-20T07:21:49.671Z,101528.03
2023-04-20T07:24:16.163Z,101528.88
2023-04-20T07:26:42.738Z,101524.56
2023-04-20T07:29:09.201Z,101525.75
2023-04-20T07:31:35.794Z,101525.09
2023-04-20T07:34:02.218Z,101528.69
2023-04-20T07:36:29.052Z,101526.91
2023-04-20T07:38:55.450Z,101530.22
2023-04-20T07:41:21.897Z,101534.94
2023-04-20T07:43:48.272Z,101536.13
2023-04-20T07:46:14.659Z,101540.47
2023-04-20T07:48:41.186Z,101536.25
2023-04-20T07:51:07.740Z,101529.28
2023-04-20T07:53:34.226Z,101533.38
2023-04-20T07:56:00.564Z,101543.31
2023-04-20T07:58:27.033Z,101537.25
2023-04-20T08:00:53.485Z,101543.84
2023-04-20T08:03:20.048Z,101541.53
2023-04-20T08:05:46.631Z,101544.03
2023-04-20T08:08:13.147Z,101547.50
2023-04-20T08:10:39.599Z,101546.03
2023-04-20T08:13:06.174Z,101538.44
2023-04-20T08:15:33.109Z,101549.97
2023-04-20T08:17:59.688Z,101556.16
2023-04-20T08:20:26.230Z,101554.59
2023-04-20T08:22:52.826Z,101547.34
2023-04-20T08:25:19.589Z,101544.22
2023-04-20T08:27:46.124Z,101548.09
2023-04-20T08:30:12.488Z,101545.06
2023-04-20T08:32:39.356Z,101551.06
2023-04-20T08:35:06.181Z,101540.19
2023-04-20T08:37:33.150Z,101536.50
2023-04-20T08:39:59.634Z,101540.47
2023-04-20T08:42:26.110Z,101540.50
2023-04-20T08:44:52.601Z,101535.91
2023-04-20T08:47:19.097Z,101535.00
2023-04-20T08:49:45.499Z,101540.13
2023-04-20T08:52:12.203Z,101536.97
2023-04-20T08:54:45.873Z,101544.28
2023-04-20T08:57:15.948Z,101538.88
2023-04-20T08:59:42.629Z,101531.91
2023-04-20T09:02:09.048Z,101534.53
2023-04-20T09:04:35.747Z,101525.28
2023-04-20T09:07:02.195Z,101525.41
2023-04-20T09:09:28.592Z,101534.41
2023-04-20T09:11:55.175Z,101522.31
2023-04-20T09:14:21.614Z,101517.44
2023-04-20T09:16:48.400Z,101523.38
2023-04-20T09:19:14.852Z,101522.34
2023-04-20T09:21:41.490Z,101518.03
2023-04-20T09:24:07.870Z,101525.03
2023-04-20T09:26:34.270Z,101520.28
2023-04-20T09:29:00.737Z,101521.16
2023-04-20T09:31:27.163Z,101527.88
2023-04-20T09:33:53.788Z,101529.13
2023-04-20T09:36:20.320Z,101529.78
2023-04-20T09:38:46.680Z,101521.03
2023-04-20T09:41:13.383Z,101523.34
2023-04-20T09:43:40.046Z,101524.16
2023-04-20T09:46:06.546Z,101525.63
2023-04-20T09:48:32.961Z,101516.06
2023-04-20T09:50:59.323Z,101523.91
2023-04-20T09:53:25.694Z,101520.59
2023-04-20T09:55:52.218Z,101522.00
2023-04-20T09:58:18.698Z,101518.94
2023-04-20T10:00:45.343Z,101523.91
2023-04-20T10:03:11.897Z,101520.06
2023-04-20T10:05:38.293Z,101520.28
2023-04-20T10:08:04.865Z,101515.97
2023-04-20T10:10:31.331Z,101514.13
2023-04-20T10:12:57.619Z,101506.94
2023-04-20T10:15:24.065Z,101519.06
2023-04-20T10:17:50.945Z,101509.81
2023-04-20T10:20:17.292Z,101511.84
2023-04-20T10:22:43.986Z,101509.41
2023-04-20T10:25:10.331Z,101512.13
2023-04-20T10:27:37.079Z,101495.81
2023-04-20T10:30:03.455Z,101503.53
2023-04-20T10:32:29.927Z,101505.78
2023-04-20T10:34:56.360Z,101508.47
2023-04-20T10:37:22.701Z,101500.63
2023-04-20T10:39:49.107Z,101491.56
2023-04-20T10:42:17.536Z,101494.59
2023-04-20T10:44:44.622Z,101492.34
2023-04-20T10:47:11.663Z,101482.44
2023-04-20T10:49:38.024Z,101487.78
2023-04-20T10:52:04.474Z,101490.09
2023-04-20T10:54:30.828Z,101484.41
2023-04-20T10:56:57.300Z,101484.13
2023-04-20T10:59:23.684Z,101475.47
2023-04-20T11:01:50.466Z,101476.78
2023-04-20T11:04:18.790Z,101475.00
2023-04-20T11:06:46.083Z,101473.50
2023-04-20T11:09:12.585Z,101462.84
2023-04-20T11:11:39.046Z,101462.59
2023-04-20T11:14:05.667Z,101454.59
2023-04-20T11:16:44.189Z,101448.16
2023-04-20T11:19:15.954Z,101462.81
2023-04-20T11:21:42.685Z,101459.50
2023-04-20T11:24:09.261Z,101459.09
2023-04-20T11:26:35.741Z,101455.38
2023-04-20T11:29:02.610Z,101455.56
2023-04-20T11:31:29.016Z,101445.69
2023-04-20T11:33:55.399Z,101444.84
2023-04-20T11:36:22.004Z,101444.84
2023-04-20T11:38:48.360Z,101437.00
2023-04-20T11:41:14.833Z,101442.34
2023-04-20T11:43:41.214Z,101435.16
2023-04-20T11:46:07.982Z,101433.06
2023-04-20T11:48:34.434Z,101426.25
2023-04-20T11:51:00.949Z,101426.25
2023-04-20T11:53:27.814Z,101423.97
2023-04-20T11:55:54.276Z,101422.72
2023-04-20T11:58:20.987Z,101423.09
2023-04-20T12:00:47.388Z,101417.56
2023-04-20T12:03:13.978Z,101414.47
2023-04-20T12:05:40.498Z,101412.78
2023-04-20T12:08:07.121Z,101410.75
2023-04-20T12:10:33.571Z,101408.06
2023-04-20T12:13:00.105Z,101411.34
2023-04-20T12:15:26.761Z,101406.00
2023-04-20T12:17:53.215Z,101399.00
2023-04-20T12:20:19.549Z,101397.97
2023-04-20T12:22:45.963Z,101401.69
2023-04-20T12:25:12.626Z,101398.16
2023-04-20T12:27:39.067Z,101390.75
2023-04-20T12:30:05.413Z,101383.53
2023-04-20T12:32:32.102Z,101382.53
2023-04-20T12:34:58.635Z,101376.13
2023-04-20T12:37:24.925Z,101380.66
2023-04-20T12:39:51.402Z,101373.84
2023-04-20T12:42:17.977Z,101371.63
2023-04-20T12:44:44.495Z,101365.22
2023-04-20T12:47:11.324Z,101360.91
2023-04-20T12:49:37.753Z,101355.31
2023-04-20T12:52:05.717Z,101358.22
2023-04-20T12:54:34.083Z,101354.50
2023-04-20T12:57:00.418Z,101355.53
2023-04-20T12:59:26.832Z,101347.09
2023-04-20T13:01:53.236Z,101345.63
2023-04-20T13:04:20.006Z,101347.09
2023-04-20T13:06:46.796Z,101341.72
2023-04-20T13:09:13.698Z,101343.59
2023-04-20T13:11:40.204Z,101339.25
2023-04-20T13:14:06.634Z,101340.91
2023-04-20T13:16:32.997Z,101329.38
2023-04-20T13:18:59.837Z,101331.22
2023-04-20T13:21:26.430Z,101331.22
2023-04-20T13:23:54.726Z,101322.16
2023-04-20T13:26:22.489Z,101330.19
2023-04-20T13:28:48.898Z,101325.84
2023-04-20T13:31:15.284Z,101317.81
2023-04-20T13:33:41.735Z,101321.31
2023-04-20T13:36:08.297Z,101313.28
2023-04-20T13:38:34.708Z,101314.31
2023-04-20T13:41:01.072Z,101313.28
2023-04-20T13:43:27.737Z,101313.09
2023-04-20T13:45:54.366Z,101310.59
2023-04-20T13:48:21.014Z,101313.28
2023-04-20T13:50:47.820Z,101316.63
2023-04-20T13:53:14.266Z,101313.28
2023-04-20T13:55:40.883Z,101324.00
2023-04-20T13:58:07.378Z,101311.66
2023-04-20T14:00:34.860Z,101319.69
2023-04-20T14:03:01.796Z,101306.28
2023-04-20T14:05:28.689Z,101310.00
2023-04-20T14:07:55.332Z,101307.31
2023-04-20T14:10:21.694Z,101304.63
2023-04-20T14:12:48.346Z,101302.97
2023-04-20T14:15:14.966Z,101307.31
2023-04-20T14:17:41.341Z,101308.97
2023-04-20T14:20:07.704Z,101299.47
2023-04-20T14:22:34.075Z,101306.28
2023-04-20T14:25:00.405Z,101300.94
2023-04-20T14:27:27.184Z,101301.97
2023-04-20T14:29:53.633Z,101295.97
2023-04-20T14:32:20.651Z,101291.25
2023-04-20T14:34:47.030Z,101291.25
2023-04-20T14:37:13.882Z,101288.56
2023-04-20T14:39:40.215Z,101286.88
2023-04-20T14:42:06.670Z,101287.53
2023-04-20T14:44:33.322Z,101290.22
2023-04-20T14:47:00.017Z,101283.81
2023-04-20T14:49:26.761Z,101291.84
2023-04-20T14:51:53.153Z,101282.16
2023-04-20T14:54:19.792Z,101284.84
2023-04-20T14:56:46.285Z,101289.38
2023-04-20T14:59:12.748Z,101287.53
2023-04-20T15:01:43.420Z,101287.34
2023-04-20T15:04:18.079Z,101283.81
2023-04-20T15:06:44.828Z,101281.13
2023-04-20T15:09:11.243Z,101281.13
2023-04-20T15:11:38.101Z,101279.50
2023-04-20T15:14:04.670Z,101280.09
2023-04-20T15:16:31.460Z,101281.13
2023-04-20T15:18:58.017Z,101274.13
2023-04-20T15:21:24.515Z,101282.97
2023-04-20T15:23:51.130Z,101281.53
2023-04-20T15:26:17.616Z,101277.84
2023-04-20T15:28:43.905Z,101275.16
2023-04-20T15:31:10.409Z,101277.41
2023-04-20T15:33:36.782Z,101270.00
2023-04-20T15:36:03.558Z,101276.16
2023-04-20T15:38:29.845Z,101278.25
2023-04-20T15:40:56.328Z,101274.91
2023-04-20T15:43:22.697Z,101270.59
2023-04-20T15:45:49.141Z,101263.19
2023-04-20T15:48:15.548Z,101274.13
2023-04-20T15:50:42.546Z,101272.25
2023-04-20T15:53:08.857Z,101272.69
2023-04-20T15:55:35.635Z,101269.38
2023-04-20T15:58:02.048Z,101272.88
2023-04-20T16:00:28.564Z,101269.56
2023-04-20T16:02:55.448Z,101272.88
2023-04-20T16:05:21.941Z,101270.22
2023-04-20T16:07:48.663Z,101270.00
2023-04-20T16:10:15.409Z,101276.16
2023-04-20T16:12:41.740Z,101267.31
2023-04-20T16:15:08.108Z,101272.50
2023-04-20T16:17:35.115Z,101274.94
2023-04-20T16:20:01.514Z,101274.13
2023-04-20T16:22:28.095Z,101271.84
2023-04-20T16:24:54.508Z,101268.13
2023-04-20T16:27:20.887Z,101274.53
2023-04-20T16:29:47.319Z,101274.34
2023-04-20T16:32:13.784Z,101274.72
2023-04-20T16:34:40.176Z,101288.56
2023-04-20T16:37:06.968Z,101271.84
2023-04-20T16:39:33.457Z,101278.84
2023-04-20T16:41:59.799Z,101279.88
2023-04-20T16:44:26.928Z,101279.28
2023-04-20T16:46:53.372Z,101281.53
2023-04-20T16:49:19.852Z,101275.38
2023-04-20T16:51:46.405Z,101274.53
2023-04-20T16:54:13.238Z,101275.38
2023-04-20T16:56:39.599Z,101274.53
2023-04-20T16:59:05.975Z,101279.88
2023-04-20T17:01:32.465Z,101283.59
2023-04-20T17:03:59.551Z,101276.59
2023-04-20T17:06:26.675Z,101283.59
2023-04-20T17:08:53.278Z,101277.22
2023-04-20T17:11:20.058Z,101280.09
2023-04-20T17:13:46.894Z,101286.09
2023-04-20T17:16:13.307Z,101287.94
2023-04-20T17:18:41.638Z,101292.44
2023-04-20T17:21:08.514Z,101291.63
2023-04-20T17:23:34.875Z,101298.03
2023-04-20T17:26:01.285Z,101301.31
2023-04-20T17:28:27.664Z,101295.97
2023-04-20T17:30:54.244Z,101300.09
2023-04-20T17:33:20.615Z,101301.31
2023-04-20T17:35:47.110Z,101302.13
2023-04-20T17:38:13.857Z,101300.88
2023-04-20T17:40:40.685Z,101298.19
2023-04-20T17:43:07.674Z,101301.28
2023-04-20T17:45:34.123Z,101302.94
2023-04-20T17:48:01.192Z,101315.34
2023-04-20T17:50:27.679Z,101306.69
2023-04-20T17:52:54.023Z,101304.69
2023-04-20T17:55:20.856Z,101306.31
2023-04-20T17:57:47.213Z,101302.63
2023-04-20T18:00:13.828Z,101311.06
2023-04-20T18:02:40.378Z,101309.25
2023-04-20T18:05:07.464Z,101308.84
2023-04-20T18:07:34.328Z,101313.22
2023-04-20T18:10:01.701Z,101312.81
2023-04-20T18:12:28.617Z,101311.78
2023-04-20T18:14:55.142Z,101311.19
2023-04-20T18:17:21.652Z,101318.59
2023-04-20T18:19:48.540Z,101315.31
2023-04-20T18:22:14.974Z,101323.56
2023-04-20T18:24:41.521Z,101325.44
2023-04-20T18:27:08.420Z,101327.91
2023-04-20T18:29:34.819Z,101328.34
2023-04-20T18:32:01.508Z,101327.31
2023-04-20T18:34:28.231Z,101330.41
2023-04-20T18:36:55.070Z,101336.41
2023-04-20T18:39:21.518Z,101334.31
2023-04-20T18:41:48.104Z,101341.13
2023-04-20T18:44:14.941Z,101343.63
2023-04-20T18:46:41.589Z,101339.88
2023-04-20T18:49:08.057Z,101342.16
2023-04-20T18:51:34.550Z,101345.47
2023-04-20T18:54:01.106Z,101338.25
2023-04-20T18:56:27.570Z,101337.00
2023-04-20T18:58:54.337Z,101342.78
2023-04-20T19:01:21.308Z,101333.72
2023-04-20T19:03:48.297Z,101342.78
2023-04-20T19:06:14.867Z,101338.03
2023-04-20T19:08:41.560Z,101340.31
2023-04-20T19:11:08.662Z,101347.53
2023-04-20T19:13:35.092Z,101353.31
2023-04-20T19:16:01.765Z,101351.25
2023-04-20T19:18:28.219Z,101343.81
2023-04-20T19:20:54.867Z,101344.44
2023-04-20T19:23:21.731Z,101340.72
2023-04-20T19:25:48.400Z,101341.31
2023-04-20T19:28:15.065Z,101346.50
2023-04-20T19:30:42.939Z,101348.78
2023-04-20T19:33:09.436Z,101341.56
2023-04-20T19:35:35.959Z,101342.34
2023-04-20T19:38:02.406Z,101344.84
2023-04-20T19:40:29.071Z,101340.09
2023-04-20T19:42:56.188Z,101347.13
2023-04-20T19:45:22.680Z,101352.88
2023-04-20T19:47:49.184Z,101349.16
2023-04-20T19:50:15.729Z,101345.47
2023-04-20T19:52:42.304Z,101350.59
2023-04-20T19:55:08.961Z,101352.06
2023-04-20T19:57:35.543Z,101348.34
2023-04-20T20:00:02.024Z,101350.00
2023-04-20T20:02:29.454Z,101352.69
2023-04-20T20:04:56.011Z,101346.25
2023-04-20T20:07:23.186Z,101346.91
2023-04-20T20:09:50.847Z,101347.50
2023-04-20T20:12:17.936Z,101352.69
2023-04-20T20:14:44.394Z,101353.31
2023-04-20T20:17:10.918Z,101355.78
2023-04-20T20:19:38.218Z,101348.34
2023-04-20T20:22:04.769Z,101355.38
2023-04-20T20:24:31.781Z,101357.84
2023-04-20T20:26:58.257Z,101356.00
2023-04-20T20:29:24.738Z,101350.41
2023-04-20T20:31:51.622Z,101359.09
2023-04-20T20:34:18.742Z,101363.41
2023-04-20T20:36:45.397Z,101356.00
2023-04-20T20:39:11.850Z,101354.09
2023-04-20T20:41:38.815Z,101354.75
2023-04-20T20:44:05.466Z,101359.91
2023-04-20T20:46:32.785Z,101357.22
2023-04-20T20:49:00.944Z,101360.50
2023-04-20T20:51:28.104Z,101353.50
2023-04-20T20:53:54.661Z,101358.44
2023-04-20T20:56:21.412Z,101358.44
2023-04-20T20:58:48.247Z,101355.75
2023-04-20T21:01:15.464Z,101355.31
2023-04-20T21:03:42.476Z,101359.66
2023-04-20T21:06:09.664Z,101349.53
2023-04-20T21:08:36.159Z,101360.88
2023-04-20T21:11:03.061Z,101355.31
2023-04-20T21:13:29.485Z,101362.94
2023-04-20T21:15:56.389Z,101355.47
2023-04-20T21:18:22.811Z,101361.50
2023-04-20T21:20:49.912Z,101365.81
2023-04-20T21:23:16.438Z,101359.19
2023-04-20T21:25:42.914Z,101352.78
2023-04-20T21:28:09.332Z,101349.06
2023-04-20T21:30:35.832Z,101356.09
2023-04-20T21:33:02.386Z,101357.72
2023-04-20T21:35:28.954Z,101352.16
2023-04-20T21:37:55.733Z,101355.47
2023-04-20T21:40:22.203Z,101360.84
2023-04-20T21:42:48.704Z,101356.28
2023-04-20T21:45:15.130Z,101360.84
2023-04-20T21:47:41.861Z,101363.53
2023-04-20T21:50:08.427Z,101366.44
2023-04-20T21:52:35.367Z,101374.06
2023-04-20T21:55:01.911Z,101373.47
2023-04-20T21:57:29.148Z,101375.75
2023-04-20T21:59:55.544Z,101373.28
2023-04-20T22:02:22.331Z,101369.75
2023-04-20T22:04:49.325Z,101372.84
2023-04-20T22:07:18.215Z,101367.94
2023-04-20T22:09:44.636Z,101371.63
2023-04-20T22:12:11.059Z,101373.91
2023-04-20T22:14:37.424Z,101366.91
2023-04-20T22:17:04.259Z,101368.75
2023-04-20T22:19:30.641Z,101371.44
2023-04-20T22:21:57.043Z,101366.50
2023-04-20T22:24:23.598Z,101365.66
2023-04-20T22:26:50.084Z,101372.09
2023-04-20T22:29:16.993Z,101373.34
2023-04-20T22:31:43.944Z,101371.47
2023-04-20T22:34:10.433Z,101367.34
2023-04-20T22:36:36.900Z,101367.53
2023-04-20T22:39:04.837Z,101366.72
2023-04-20T22:41:31.210Z,101367.75
2023-04-20T22:43:57.582Z,101367.75
2023-04-20T22:46:24.019Z,101368.19
2023-04-20T22:48:50.503Z,101367.13
2023-04-20T22:51:16.899Z,101369.19
2023-04-20T22:53:43.416Z,101370.03
2023-04-20T22:56:10.089Z,101367.56
2023-04-20T22:58:36.509Z,101369.19
2023-04-20T23:01:03.293Z,101368.38
2023-04-20T23:03:29.956Z,101371.28
2023-04-20T23:05:56.601Z,101369.00
2023-04-20T23:08:23.102Z,101367.97
2023-04-20T23:10:49.538Z,101374.16
2023-04-20T23:13:16.231Z,101372.13
2023-04-20T23:15:42.877Z,101371.69
2023-04-20T23:18:09.309Z,101370.03
2023-04-20T23:20:35.820Z,101374.81
2023-04-20T23:23:02.233Z,101371.50
2023-04-20T23:25:28.744Z,101369.44
2023-04-20T23:27:55.199Z,101363.44
2023-04-20T23:30:21.783Z,101366.28
2023-04-20T23:32:48.272Z,101358.25
2023-04-20T23:35:14.736Z,101370.84
2023-04-20T23:37:41.098Z,101367.53
2023-04-20T23:40:07.800Z,101363.81
2023-04-20T23:42:34.251Z,101364.25
2023-04-20T23:45:00.733Z,101364.66
2023-04-20T23:47:27.501Z,101363.63
2023-04-20T23:49:53.942Z,101366.09
2023-04-20T23:52:20.418Z,101362.81
2023-04-20T23:54:46.858Z,101358.06
2023-04-20T23:57:13.535Z,101364.66
2023-04-20T23:59:40.188Z,101357.22
